sensor_id;sensor_type;location;lat;lon;timestamp;P1;durP1;ratioP1;P2;durP2;ratioP2
24147;SDS011;12309;51.450;-2.624;2023-06-24T00:02:12;13.18;;;4.57;;
24147;SDS011;12309;51.450;-2.624;2023-06-24T00:04:38;7.22;;;4.07;;
24147;SDS011;12309;51.450;-2.624;2023-06-24T00:07:04;6.72;;;4.20;;
24147;SDS011;12309;51.450;-2.624;2023-06-24T00:09:30;9.30;;;4.55;;
24147;SDS011;12309;51.450;-2.624;2023-06-24T00:11:56;8.98;;;4.38;;
24147;SDS011;12309;51.450;-2.624;2023-06-24T00:14:25;7.00;;;4.20;;
24147;SDS011;12309;51.450;-2.624;2023-06-24T00:16:52;8.85;;;4.10;;
24147;SDS011;12309;51.450;-2.624;2023-06-24T00:19:19;5.65;;;3.78;;
24147;SDS011;12309;51.450;-2.624;2023-06-24T00:21:45;8.63;;;4.22;;
24147;SDS011;12309;51.450;-2.624;2023-06-24T00:24:16;6.28;;;4.20;;
24147;SDS011;12309;51.450;-2.624;2023-06-24T00:26:47;8.57;;;4.10;;
24147;SDS011;12309;51.450;-2.624;2023-06-24T00:29:13;8.60;;;4.45;;
24147;SDS011;12309;51.450;-2.624;2023-06-24T00:31:40;6.45;;;3.95;;
24147;SDS011;12309;51.450;-2.624;2023-06-24T00:34:06;5.35;;;3.60;;
24147;SDS011;12309;51.450;-2.624;2023-06-24T00:36:32;9.00;;;3.88;;
24147;SDS011;12309;51.450;-2.624;2023-06-24T00:38:57;9.68;;;4.00;;
24147;SDS011;12309;51.450;-2.624;2023-06-24T00:41:28;5.28;;;3.83;;
24147;SDS011;12309;51.450;-2.624;2023-06-24T00:43:57;8.98;;;3.88;;
24147;SDS011;12309;51.450;-2.624;2023-06-24T00:46:24;9.13;;;4.50;;
24147;SDS011;12309;51.450;-2.624;2023-06-24T00:48:51;8.02;;;4.60;;
24147;SDS011;12309;51.450;-2.624;2023-06-24T00:51:20;10.18;;;4.38;;
24147;SDS011;12309;51.450;-2.624;2023-06-24T00:53:47;7.85;;;4.07;;
24147;SDS011;12309;51.450;-2.624;2023-06-24T00:56:14;11.65;;;4.00;;
24147;SDS011;12309;51.450;-2.624;2023-06-24T00:58:43;8.10;;;4.10;;
24147;SDS011;12309;51.450;-2.624;2023-06-24T01:01:09;7.30;;;4.05;;
24147;SDS011;12309;51.450;-2.624;2023-06-24T01:03:36;6.10;;;4.07;;
24147;SDS011;12309;51.450;-2.624;2023-06-24T01:06:02;8.75;;;3.90;;
24147;SDS011;12309;51.450;-2.624;2023-06-24T01:08:28;9.35;;;4.30;;
24147;SDS011;12309;51.450;-2.624;2023-06-24T01:10:53;6.68;;;3.97;;
24147;SDS011;12309;51.450;-2.624;2023-06-24T01:13:19;7.20;;;3.88;;
24147;SDS011;12309;51.450;-2.624;2023-06-24T01:15:45;6.68;;;4.03;;
24147;SDS011;12309;51.450;-2.624;2023-06-24T01:32:02;9.73;;;4.38;;
24147;SDS011;12309;51.450;-2.624;2023-06-24T01:34:36;8.93;;;4.13;;
24147;SDS011;12309;51.450;-2.624;2023-06-24T01:40:05;8.38;;;4.20;;
24147;SDS011;12309;51.450;-2.624;2023-06-24T01:42:37;9.93;;;4.53;;
24147;SDS011;12309;51.450;-2.624;2023-06-24T01:45:05;11.02;;;4.60;;
24147;SDS011;12309;51.450;-2.624;2023-06-24T01:47:37;9.27;;;4.38;;
24147;SDS011;12309;51.450;-2.624;2023-06-24T01:50:05;10.07;;;4.38;;
24147;SDS011;12309;51.450;-2.624;2023-06-24T01:52:34;8.85;;;4.25;;
24147;SDS011;12309;51.450;-2.624;2023-06-24T01:55:00;12.23;;;4.75;;
24147;SDS011;12309;51.450;-2.624;2023-06-24T01:57:29;5.88;;;4.30;;
24147;SDS011;12309;51.450;-2.624;2023-06-24T01:59:57;8.57;;;4.55;;
24147;SDS011;12309;51.450;-2.624;2023-06-24T02:02:27;8.93;;;4.57;;
24147;SDS011;12309;51.450;-2.624;2023-06-24T02:04:54;8.35;;;4.45;;
24147;SDS011;12309;51.450;-2.624;2023-06-24T02:07:20;7.88;;;4.72;;
24147;SDS011;12309;51.450;-2.624;2023-06-24T02:09:47;7.53;;;4.03;;
24147;SDS011;12309;51.450;-2.624;2023-06-24T02:12:14;7.63;;;4.38;;
24147;SDS011;12309;51.450;-2.624;2023-06-24T02:14:40;7.55;;;4.78;;
24147;SDS011;12309;51.450;-2.624;2023-06-24T02:17:08;9.25;;;4.88;;
24147;SDS011;12309;51.450;-2.624;2023-06-24T02:19:36;9.55;;;4.78;;
24147;SDS011;12309;51.450;-2.624;2023-06-24T02:22:03;9.68;;;4.72;;
24147;SDS011;12309;51.450;-2.624;2023-06-24T02:24:34;10.40;;;5.05;;
24147;SDS011;12309;51.450;-2.624;2023-06-24T02:27:01;10.30;;;4.68;;
24147;SDS011;12309;51.450;-2.624;2023-06-24T02:29:28;11.90;;;4.93;;
24147;SDS011;12309;51.450;-2.624;2023-06-24T02:31:55;8.35;;;4.57;;
24147;SDS011;12309;51.450;-2.624;2023-06-24T02:34:22;10.02;;;4.90;;
24147;SDS011;12309;51.450;-2.624;2023-06-24T02:36:48;11.25;;;4.95;;
24147;SDS011;12309;51.450;-2.624;2023-06-24T02:39:14;7.40;;;4.40;;
24147;SDS011;12309;51.450;-2.624;2023-06-24T02:41:40;8.45;;;4.78;;
24147;SDS011;12309;51.450;-2.624;2023-06-24T02:44:06;9.32;;;4.75;;
24147;SDS011;12309;51.450;-2.624;2023-06-24T02:46:32;8.20;;;4.72;;
24147;SDS011;12309;51.450;-2.624;2023-06-24T02:49:00;10.13;;;4.80;;
24147;SDS011;12309;51.450;-2.624;2023-06-24T02:51:26;11.15;;;5.13;;
24147;SDS011;12309;51.450;-2.624;2023-06-24T02:53:52;11.88;;;4.82;;
24147;SDS011;12309;51.450;-2.624;2023-06-24T02:56:19;9.55;;;4.70;;
24147;SDS011;12309;51.450;-2.624;2023-06-24T02:58:46;6.85;;;4.45;;
24147;SDS011;12309;51.450;-2.624;2023-06-24T03:01:12;11.77;;;4.88;;
24147;SDS011;12309;51.450;-2.624;2023-06-24T03:03:40;10.18;;;4.97;;
24147;SDS011;12309;51.450;-2.624;2023-06-24T03:06:06;10.95;;;4.57;;
24147;SDS011;12309;51.450;-2.624;2023-06-24T03:08:32;9.88;;;5.25;;
24147;SDS011;12309;51.450;-2.624;2023-06-24T03:10:58;10.73;;;4.82;;
24147;SDS011;12309;51.450;-2.624;2023-06-24T03:13:24;10.15;;;4.68;;
24147;SDS011;12309;51.450;-2.624;2023-06-24T03:15:50;10.93;;;5.18;;
24147;SDS011;12309;51.450;-2.624;2023-06-24T03:18:16;7.88;;;4.82;;
24147;SDS011;12309;51.450;-2.624;2023-06-24T03:20:43;6.22;;;5.20;;
24147;SDS011;12309;51.450;-2.624;2023-06-24T03:23:08;8.10;;;4.68;;
24147;SDS011;12309;51.450;-2.624;2023-06-24T03:25:34;7.05;;;4.72;;
24147;SDS011;12309;51.450;-2.624;2023-06-24T03:28:00;7.25;;;4.80;;
24147;SDS011;12309;51.450;-2.624;2023-06-24T03:30:28;11.32;;;5.32;;
24147;SDS011;12309;51.450;-2.624;2023-06-24T03:32:54;11.48;;;5.53;;
24147;SDS011;12309;51.450;-2.624;2023-06-24T03:35:20;8.82;;;5.03;;
24147;SDS011;12309;51.450;-2.624;2023-06-24T03:37:47;9.52;;;5.07;;
24147;SDS011;12309;51.450;-2.624;2023-06-24T03:40:13;8.85;;;4.95;;
24147;SDS011;12309;51.450;-2.624;2023-06-24T03:42:38;9.23;;;5.07;;
24147;SDS011;12309;51.450;-2.624;2023-06-24T03:45:04;12.48;;;5.03;;
24147;SDS011;12309;51.450;-2.624;2023-06-24T03:47:30;9.50;;;4.93;;
24147;SDS011;12309;51.450;-2.624;2023-06-24T03:49:56;8.65;;;4.90;;
24147;SDS011;12309;51.450;-2.624;2023-06-24T03:52:21;11.57;;;5.13;;
24147;SDS011;12309;51.450;-2.624;2023-06-24T03:54:47;8.15;;;5.30;;
24147;SDS011;12309;51.450;-2.624;2023-06-24T03:57:12;8.57;;;4.95;;
24147;SDS011;12309;51.450;-2.624;2023-06-24T03:59:38;11.15;;;5.70;;
24147;SDS011;12309;51.450;-2.624;2023-06-24T04:02:04;9.98;;;5.15;;
24147;SDS011;12309;51.450;-2.624;2023-06-24T04:04:34;8.70;;;4.82;;
24147;SDS011;12309;51.450;-2.624;2023-06-24T04:07:00;9.77;;;4.95;;
24147;SDS011;12309;51.450;-2.624;2023-06-24T04:09:26;9.65;;;5.18;;
24147;SDS011;12309;51.450;-2.624;2023-06-24T04:11:51;7.75;;;4.80;;
24147;SDS011;12309;51.450;-2.624;2023-06-24T04:14:17;11.07;;;4.78;;
24147;SDS011;12309;51.450;-2.624;2023-06-24T04:16:42;7.70;;;5.07;;
24147;SDS011;12309;51.450;-2.624;2023-06-24T04:19:08;9.15;;;5.40;;
24147;SDS011;12309;51.450;-2.624;2023-06-24T04:21:34;9.32;;;5.18;;
24147;SDS011;12309;51.450;-2.624;2023-06-24T04:23:59;9.48;;;5.13;;
24147;SDS011;12309;51.450;-2.624;2023-06-24T04:26:25;9.35;;;5.18;;
24147;SDS011;12309;51.450;-2.624;2023-06-24T04:28:51;10.20;;;5.40;;
24147;SDS011;12309;51.450;-2.624;2023-06-24T04:31:16;10.90;;;5.50;;
24147;SDS011;12309;51.450;-2.624;2023-06-24T04:33:42;10.75;;;5.32;;
24147;SDS011;12309;51.450;-2.624;2023-06-24T04:36:07;13.52;;;5.50;;
24147;SDS011;12309;51.450;-2.624;2023-06-24T04:38:33;9.98;;;5.03;;
24147;SDS011;12309;51.450;-2.624;2023-06-24T04:40:58;9.82;;;5.82;;
24147;SDS011;12309;51.450;-2.624;2023-06-24T04:43:25;8.13;;;5.32;;
24147;SDS011;12309;51.450;-2.624;2023-06-24T04:45:53;8.32;;;4.85;;
24147;SDS011;12309;51.450;-2.624;2023-06-24T04:48:20;12.93;;;4.90;;
24147;SDS011;12309;51.450;-2.624;2023-06-24T04:50:45;8.30;;;4.97;;
24147;SDS011;12309;51.450;-2.624;2023-06-24T04:53:11;11.25;;;5.25;;
24147;SDS011;12309;51.450;-2.624;2023-06-24T04:55:37;10.45;;;5.35;;
24147;SDS011;12309;51.450;-2.624;2023-06-24T04:58:03;7.32;;;4.93;;
24147;SDS011;12309;51.450;-2.624;2023-06-24T05:00:29;12.20;;;5.07;;
24147;SDS011;12309;51.450;-2.624;2023-06-24T05:02:54;8.30;;;5.03;;
24147;SDS011;12309;51.450;-2.624;2023-06-24T05:05:20;8.68;;;4.63;;
24147;SDS011;12309;51.450;-2.624;2023-06-24T05:07:45;8.52;;;4.70;;
24147;SDS011;12309;51.450;-2.624;2023-06-24T05:10:11;9.38;;;4.97;;
24147;SDS011;12309;51.450;-2.624;2023-06-24T05:12:37;10.25;;;5.10;;
24147;SDS011;12309;51.450;-2.624;2023-06-24T05:15:02;8.60;;;4.85;;
24147;SDS011;12309;51.450;-2.624;2023-06-24T05:17:28;8.02;;;5.13;;
24147;SDS011;12309;51.450;-2.624;2023-06-24T05:19:54;7.53;;;4.82;;
24147;SDS011;12309;51.450;-2.624;2023-06-24T05:22:19;8.15;;;4.90;;
24147;SDS011;12309;51.450;-2.624;2023-06-24T05:24:45;9.13;;;4.88;;
24147;SDS011;12309;51.450;-2.624;2023-06-24T05:27:11;14.25;;;5.70;;
24147;SDS011;12309;51.450;-2.624;2023-06-24T05:29:36;14.23;;;5.68;;
24147;SDS011;12309;51.450;-2.624;2023-06-24T05:32:02;11.25;;;5.50;;
24147;SDS011;12309;51.450;-2.624;2023-06-24T05:34:28;11.43;;;5.63;;
24147;SDS011;12309;51.450;-2.624;2023-06-24T05:36:55;10.55;;;5.40;;
24147;SDS011;12309;51.450;-2.624;2023-06-24T05:39:21;7.47;;;4.95;;
24147;SDS011;12309;51.450;-2.624;2023-06-24T05:41:46;9.30;;;5.05;;
24147;SDS011;12309;51.450;-2.624;2023-06-24T05:44:13;10.07;;;5.07;;
24147;SDS011;12309;51.450;-2.624;2023-06-24T05:46:39;8.48;;;4.93;;
24147;SDS011;12309;51.450;-2.624;2023-06-24T05:49:05;8.88;;;5.25;;
24147;SDS011;12309;51.450;-2.624;2023-06-24T05:51:31;11.00;;;5.00;;
24147;SDS011;12309;51.450;-2.624;2023-06-24T05:53:56;10.52;;;5.75;;
24147;SDS011;12309;51.450;-2.624;2023-06-24T05:56:22;9.77;;;5.40;;
24147;SDS011;12309;51.450;-2.624;2023-06-24T05:58:48;6.45;;;4.80;;
24147;SDS011;12309;51.450;-2.624;2023-06-24T06:01:14;14.80;;;6.03;;
24147;SDS011;12309;51.450;-2.624;2023-06-24T06:03:40;8.10;;;4.70;;
24147;SDS011;12309;51.450;-2.624;2023-06-24T06:06:06;7.93;;;5.22;;
24147;SDS011;12309;51.450;-2.624;2023-06-24T06:08:32;9.45;;;5.43;;
24147;SDS011;12309;51.450;-2.624;2023-06-24T06:10:58;6.72;;;4.85;;
24147;SDS011;12309;51.450;-2.624;2023-06-24T06:13:26;14.32;;;5.75;;
24147;SDS011;12309;51.450;-2.624;2023-06-24T06:15:52;10.73;;;5.25;;
24147;SDS011;12309;51.450;-2.624;2023-06-24T06:18:18;9.55;;;6.00;;
24147;SDS011;12309;51.450;-2.624;2023-06-24T06:20:44;10.70;;;5.60;;
24147;SDS011;12309;51.450;-2.624;2023-06-24T06:23:09;9.80;;;5.80;;
24147;SDS011;12309;51.450;-2.624;2023-06-24T06:25:35;8.40;;;5.97;;
24147;SDS011;12309;51.450;-2.624;2023-06-24T06:28:02;11.32;;;5.68;;
24147;SDS011;12309;51.450;-2.624;2023-06-24T06:30:28;10.35;;;5.22;;
24147;SDS011;12309;51.450;-2.624;2023-06-24T06:32:53;8.93;;;4.82;;
24147;SDS011;12309;51.450;-2.624;2023-06-24T06:35:19;8.50;;;5.05;;
24147;SDS011;12309;51.450;-2.624;2023-06-24T06:37:45;9.05;;;4.80;;
24147;SDS011;12309;51.450;-2.624;2023-06-24T06:40:19;14.10;;;5.20;;
24147;SDS011;12309;51.450;-2.624;2023-06-24T06:42:45;10.27;;;4.78;;
24147;SDS011;12309;51.450;-2.624;2023-06-24T06:45:11;9.93;;;5.00;;
24147;SDS011;12309;51.450;-2.624;2023-06-24T06:47:37;8.52;;;4.57;;
24147;SDS011;12309;51.450;-2.624;2023-06-24T06:50:02;8.35;;;4.78;;
24147;SDS011;12309;51.450;-2.624;2023-06-24T06:52:28;6.53;;;4.32;;
24147;SDS011;12309;51.450;-2.624;2023-06-24T06:54:55;9.60;;;4.65;;
24147;SDS011;12309;51.450;-2.624;2023-06-24T06:57:21;8.05;;;4.25;;
24147;SDS011;12309;51.450;-2.624;2023-06-24T06:59:47;6.57;;;4.28;;
24147;SDS011;12309;51.450;-2.624;2023-06-24T07:02:15;7.75;;;4.03;;
24147;SDS011;12309;51.450;-2.624;2023-06-24T07:04:42;8.30;;;4.28;;
24147;SDS011;12309;51.450;-2.624;2023-06-24T07:07:08;10.48;;;3.95;;
24147;SDS011;12309;51.450;-2.624;2023-06-24T07:09:33;7.30;;;3.80;;
24147;SDS011;12309;51.450;-2.624;2023-06-24T07:11:59;7.90;;;4.10;;
24147;SDS011;12309;51.450;-2.624;2023-06-24T07:14:25;5.70;;;3.30;;
24147;SDS011;12309;51.450;-2.624;2023-06-24T07:16:51;7.57;;;4.05;;
24147;SDS011;12309;51.450;-2.624;2023-06-24T07:19:17;7.90;;;3.90;;
24147;SDS011;12309;51.450;-2.624;2023-06-24T07:21:43;8.25;;;3.78;;
24147;SDS011;12309;51.450;-2.624;2023-06-24T07:24:09;5.63;;;3.70;;
24147;SDS011;12309;51.450;-2.624;2023-06-24T07:26:34;6.07;;;3.47;;
24147;SDS011;12309;51.450;-2.624;2023-06-24T07:29:00;6.45;;;3.30;;
24147;SDS011;12309;51.450;-2.624;2023-06-24T07:31:26;9.30;;;3.92;;
24147;SDS011;12309;51.450;-2.624;2023-06-24T07:33:52;7.60;;;4.13;;
24147;SDS011;12309;51.450;-2.624;2023-06-24T07:36:17;5.90;;;3.83;;
24147;SDS011;12309;51.450;-2.624;2023-06-24T07:38:44;10.30;;;4.00;;
24147;SDS011;12309;51.450;-2.624;2023-06-24T07:41:09;11.27;;;3.70;;
24147;SDS011;12309;51.450;-2.624;2023-06-24T07:43:35;8.15;;;3.92;;
24147;SDS011;12309;51.450;-2.624;2023-06-24T07:46:01;6.47;;;4.30;;
24147;SDS011;12309;51.450;-2.624;2023-06-24T07:48:27;7.93;;;3.92;;
24147;SDS011;12309;51.450;-2.624;2023-06-24T07:50:53;6.03;;;3.63;;
24147;SDS011;12309;51.450;-2.624;2023-06-24T07:53:19;7.60;;;3.78;;
24147;SDS011;12309;51.450;-2.624;2023-06-24T07:55:45;12.43;;;4.00;;
24147;SDS011;12309;51.450;-2.624;2023-06-24T07:58:10;7.75;;;3.70;;
24147;SDS011;12309;51.450;-2.624;2023-06-24T08:00:36;9.98;;;3.90;;
24147;SDS011;12309;51.450;-2.624;2023-06-24T08:03:03;6.88;;;3.70;;
24147;SDS011;12309;51.450;-2.624;2023-06-24T08:05:28;8.98;;;4.10;;
24147;SDS011;12309;51.450;-2.624;2023-06-24T08:07:54;6.35;;;4.35;;
24147;SDS011;12309;51.450;-2.624;2023-06-24T08:10:20;6.55;;;3.65;;
24147;SDS011;12309;51.450;-2.624;2023-06-24T08:12:45;8.50;;;4.15;;
24147;SDS011;12309;51.450;-2.624;2023-06-24T08:15:13;7.53;;;4.20;;
24147;SDS011;12309;51.450;-2.624;2023-06-24T08:17:39;7.60;;;3.60;;
24147;SDS011;12309;51.450;-2.624;2023-06-24T08:20:05;11.63;;;4.18;;
24147;SDS011;12309;51.450;-2.624;2023-06-24T08:22:31;8.32;;;3.53;;
24147;SDS011;12309;51.450;-2.624;2023-06-24T08:24:57;6.07;;;3.75;;
24147;SDS011;12309;51.450;-2.624;2023-06-24T08:27:24;13.38;;;4.05;;
24147;SDS011;12309;51.450;-2.624;2023-06-24T08:29:50;9.85;;;4.15;;
24147;SDS011;12309;51.450;-2.624;2023-06-24T08:32:15;6.68;;;3.63;;
24147;SDS011;12309;51.450;-2.624;2023-06-24T08:34:41;6.72;;;3.92;;
24147;SDS011;12309;51.450;-2.624;2023-06-24T08:37:07;7.43;;;3.97;;
24147;SDS011;12309;51.450;-2.624;2023-06-24T08:39:32;8.10;;;4.07;;
24147;SDS011;12309;51.450;-2.624;2023-06-24T08:41:58;9.18;;;4.00;;
24147;SDS011;12309;51.450;-2.624;2023-06-24T08:44:24;11.18;;;4.68;;
24147;SDS011;12309;51.450;-2.624;2023-06-24T08:46:50;7.93;;;4.07;;
24147;SDS011;12309;51.450;-2.624;2023-06-24T08:51:49;7.28;;;3.63;;
24147;SDS011;12309;51.450;-2.624;2023-06-24T08:54:34;7.03;;;3.65;;
24147;SDS011;12309;51.450;-2.624;2023-06-24T08:57:01;7.57;;;3.22;;
24147;SDS011;12309;51.450;-2.624;2023-06-24T08:59:29;6.57;;;3.55;;
24147;SDS011;12309;51.450;-2.624;2023-06-24T09:01:56;7.85;;;3.75;;
24147;SDS011;12309;51.450;-2.624;2023-06-24T09:04:21;8.52;;;3.60;;
24147;SDS011;12309;51.450;-2.624;2023-06-24T09:06:47;5.40;;;3.20;;
24147;SDS011;12309;51.450;-2.624;2023-06-24T09:09:17;5.60;;;3.17;;
24147;SDS011;12309;51.450;-2.624;2023-06-24T09:14:18;7.97;;;3.72;;
24147;SDS011;12309;51.450;-2.624;2023-06-24T09:16:51;7.70;;;3.90;;
24147;SDS011;12309;51.450;-2.624;2023-06-24T09:19:21;9.52;;;3.72;;
24147;SDS011;12309;51.450;-2.624;2023-06-24T09:21:47;11.98;;;3.78;;
24147;SDS011;12309;51.450;-2.624;2023-06-24T09:24:13;7.88;;;3.78;;
24147;SDS011;12309;51.450;-2.624;2023-06-24T09:26:41;8.55;;;3.75;;
24147;SDS011;12309;51.450;-2.624;2023-06-24T09:29:09;11.05;;;3.75;;
24147;SDS011;12309;51.450;-2.624;2023-06-24T09:31:35;7.97;;;3.92;;
24147;SDS011;12309;51.450;-2.624;2023-06-24T09:34:12;8.40;;;3.65;;
24147;SDS011;12309;51.450;-2.624;2023-06-24T09:36:41;11.15;;;3.78;;
24147;SDS011;12309;51.450;-2.624;2023-06-24T09:39:15;7.10;;;3.85;;
24147;SDS011;12309;51.450;-2.624;2023-06-24T09:41:41;9.68;;;3.80;;
24147;SDS011;12309;51.450;-2.624;2023-06-24T09:44:11;7.20;;;3.45;;
24147;SDS011;12309;51.450;-2.624;2023-06-24T09:46:37;8.10;;;3.72;;
24147;SDS011;12309;51.450;-2.624;2023-06-24T09:49:04;5.18;;;3.35;;
24147;SDS011;12309;51.450;-2.624;2023-06-24T09:51:31;8.38;;;4.00;;
24147;SDS011;12309;51.450;-2.624;2023-06-24T09:54:00;5.88;;;3.72;;
24147;SDS011;12309;51.450;-2.624;2023-06-24T09:56:27;8.85;;;3.47;;
24147;SDS011;12309;51.450;-2.624;2023-06-24T09:58:53;6.43;;;3.30;;
24147;SDS011;12309;51.450;-2.624;2023-06-24T10:01:19;10.25;;;3.40;;
24147;SDS011;12309;51.450;-2.624;2023-06-24T10:03:45;6.20;;;3.72;;
24147;SDS011;12309;51.450;-2.624;2023-06-24T10:06:11;6.82;;;3.60;;
24147;SDS011;12309;51.450;-2.624;2023-06-24T10:08:37;6.10;;;3.28;;
24147;SDS011;12309;51.450;-2.624;2023-06-24T10:11:03;5.65;;;3.30;;
24147;SDS011;12309;51.450;-2.624;2023-06-24T10:13:29;7.85;;;3.17;;
24147;SDS011;12309;51.450;-2.624;2023-06-24T10:15:55;6.50;;;3.47;;
24147;SDS011;12309;51.450;-2.624;2023-06-24T10:20:57;6.30;;;3.10;;
24147;SDS011;12309;51.450;-2.624;2023-06-24T10:23:29;4.45;;;2.97;;
24147;SDS011;12309;51.450;-2.624;2023-06-24T10:26:08;6.60;;;3.28;;
24147;SDS011;12309;51.450;-2.624;2023-06-24T10:29:08;7.80;;;3.33;;
24147;SDS011;12309;51.450;-2.624;2023-06-24T10:36:54;5.93;;;3.08;;
24147;SDS011;12309;51.450;-2.624;2023-06-24T10:39:45;7.53;;;3.30;;
24147;SDS011;12309;51.450;-2.624;2023-06-24T10:47:41;4.57;;;3.13;;
24147;SDS011;12309;51.450;-2.624;2023-06-24T10:50:07;5.60;;;3.08;;
24147;SDS011;12309;51.450;-2.624;2023-06-24T10:52:40;4.93;;;2.83;;
24147;SDS011;12309;51.450;-2.624;2023-06-24T10:55:08;4.55;;;2.75;;
24147;SDS011;12309;51.450;-2.624;2023-06-24T10:57:34;7.78;;;3.72;;
24147;SDS011;12309;51.450;-2.624;2023-06-24T11:00:00;6.45;;;3.72;;
24147;SDS011;12309;51.450;-2.624;2023-06-24T11:02:27;9.63;;;4.22;;
24147;SDS011;12309;51.450;-2.624;2023-06-24T11:04:54;8.38;;;3.90;;
24147;SDS011;12309;51.450;-2.624;2023-06-24T11:07:21;8.25;;;3.63;;
24147;SDS011;12309;51.450;-2.624;2023-06-24T11:09:51;6.03;;;3.83;;
24147;SDS011;12309;51.450;-2.624;2023-06-24T11:12:24;5.63;;;3.85;;
24147;SDS011;12309;51.450;-2.624;2023-06-24T11:14:51;7.15;;;3.75;;
24147;SDS011;12309;51.450;-2.624;2023-06-24T11:17:20;10.52;;;4.25;;
24147;SDS011;12309;51.450;-2.624;2023-06-24T11:19:46;8.68;;;3.60;;
24147;SDS011;12309;51.450;-2.624;2023-06-24T11:22:11;5.93;;;3.58;;
24147;SDS011;12309;51.450;-2.624;2023-06-24T11:24:37;8.10;;;3.78;;
24147;SDS011;12309;51.450;-2.624;2023-06-24T11:27:04;9.00;;;4.00;;
24147;SDS011;12309;51.450;-2.624;2023-06-24T11:29:31;9.40;;;3.67;;
24147;SDS011;12309;51.450;-2.624;2023-06-24T11:31:57;8.60;;;3.88;;
24147;SDS011;12309;51.450;-2.624;2023-06-24T11:34:23;7.25;;;3.60;;
24147;SDS011;12309;51.450;-2.624;2023-06-24T11:36:49;8.75;;;3.25;;
24147;SDS011;12309;51.450;-2.624;2023-06-24T11:39:22;4.25;;;3.38;;
24147;SDS011;12309;51.450;-2.624;2023-06-24T11:41:49;3.55;;;2.63;;
24147;SDS011;12309;51.450;-2.624;2023-06-24T11:44:16;5.10;;;3.53;;
24147;SDS011;12309;51.450;-2.624;2023-06-24T11:46:43;6.38;;;3.63;;
24147;SDS011;12309;51.450;-2.624;2023-06-24T11:49:09;8.75;;;4.10;;
24147;SDS011;12309;51.450;-2.624;2023-06-24T11:51:35;8.30;;;3.35;;
24147;SDS011;12309;51.450;-2.624;2023-06-24T11:54:05;6.00;;;2.83;;
24147;SDS011;12309;51.450;-2.624;2023-06-24T11:56:37;6.38;;;2.90;;
24147;SDS011;12309;51.450;-2.624;2023-06-24T11:59:07;4.57;;;2.63;;
24147;SDS011;12309;51.450;-2.624;2023-06-24T12:01:42;8.65;;;3.20;;
24147;SDS011;12309;51.450;-2.624;2023-06-24T12:04:12;4.32;;;2.80;;
24147;SDS011;12309;51.450;-2.624;2023-06-24T12:06:41;4.45;;;2.75;;
24147;SDS011;12309;51.450;-2.624;2023-06-24T12:09:08;6.30;;;3.15;;
24147;SDS011;12309;51.450;-2.624;2023-06-24T12:11:34;6.32;;;3.28;;
24147;SDS011;12309;51.450;-2.624;2023-06-24T12:14:00;5.20;;;3.28;;
24147;SDS011;12309;51.450;-2.624;2023-06-24T12:16:25;8.02;;;3.22;;
24147;SDS011;12309;51.450;-2.624;2023-06-24T12:18:51;4.75;;;2.72;;
24147;SDS011;12309;51.450;-2.624;2023-06-24T12:21:17;5.93;;;2.45;;
24147;SDS011;12309;51.450;-2.624;2023-06-24T12:23:44;4.10;;;2.15;;
24147;SDS011;12309;51.450;-2.624;2023-06-24T12:26:10;5.82;;;2.50;;
24147;SDS011;12309;51.450;-2.624;2023-06-24T12:28:35;4.20;;;2.25;;
24147;SDS011;12309;51.450;-2.624;2023-06-24T12:31:01;5.57;;;2.92;;
24147;SDS011;12309;51.450;-2.624;2023-06-24T12:33:27;7.72;;;2.90;;
24147;SDS011;12309;51.450;-2.624;2023-06-24T12:35:53;7.68;;;3.20;;
24147;SDS011;12309;51.450;-2.624;2023-06-24T12:38:19;5.40;;;3.22;;
24147;SDS011;12309;51.450;-2.624;2023-06-24T12:40:45;8.00;;;3.22;;
24147;SDS011;12309;51.450;-2.624;2023-06-24T12:43:10;8.57;;;3.05;;
24147;SDS011;12309;51.450;-2.624;2023-06-24T12:45:37;18.50;;;3.95;;
24147;SDS011;12309;51.450;-2.624;2023-06-24T12:48:03;4.10;;;2.78;;
24147;SDS011;12309;51.450;-2.624;2023-06-24T12:50:29;9.00;;;3.08;;
24147;SDS011;12309;51.450;-2.624;2023-06-24T12:52:58;6.53;;;3.03;;
24147;SDS011;12309;51.450;-2.624;2023-06-24T12:55:23;4.95;;;3.17;;
24147;SDS011;12309;51.450;-2.624;2023-06-24T12:57:49;7.68;;;3.10;;
24147;SDS011;12309;51.450;-2.624;2023-06-24T13:00:15;5.72;;;3.05;;
24147;SDS011;12309;51.450;-2.624;2023-06-24T13:02:45;9.15;;;3.13;;
24147;SDS011;12309;51.450;-2.624;2023-06-24T13:05:10;4.57;;;3.05;;
24147;SDS011;12309;51.450;-2.624;2023-06-24T13:07:36;8.77;;;3.03;;
24147;SDS011;12309;51.450;-2.624;2023-06-24T13:10:01;7.60;;;3.50;;
24147;SDS011;12309;51.450;-2.624;2023-06-24T13:12:27;6.60;;;3.20;;
24147;SDS011;12309;51.450;-2.624;2023-06-24T13:14:53;5.82;;;3.30;;
24147;SDS011;12309;51.450;-2.624;2023-06-24T13:17:19;5.07;;;2.92;;
24147;SDS011;12309;51.450;-2.624;2023-06-24T13:19:44;6.03;;;3.30;;
24147;SDS011;12309;51.450;-2.624;2023-06-24T13:22:10;8.23;;;3.75;;
24147;SDS011;12309;51.450;-2.624;2023-06-24T13:24:35;6.57;;;3.70;;
24147;SDS011;12309;51.450;-2.624;2023-06-24T13:27:01;6.85;;;3.75;;
24147;SDS011;12309;51.450;-2.624;2023-06-24T13:29:26;6.00;;;3.30;;
24147;SDS011;12309;51.450;-2.624;2023-06-24T13:31:52;6.85;;;3.58;;
24147;SDS011;12309;51.450;-2.624;2023-06-24T13:34:18;9.48;;;3.72;;
24147;SDS011;12309;51.450;-2.624;2023-06-24T13:36:44;6.95;;;3.50;;
24147;SDS011;12309;51.450;-2.624;2023-06-24T13:39:09;6.38;;;3.47;;
24147;SDS011;12309;51.450;-2.624;2023-06-24T13:41:38;4.65;;;3.10;;
24147;SDS011;12309;51.450;-2.624;2023-06-24T13:44:04;6.53;;;3.55;;
24147;SDS011;12309;51.450;-2.624;2023-06-24T13:46:31;4.55;;;3.00;;
24147;SDS011;12309;51.450;-2.624;2023-06-24T13:48:58;3.42;;;2.38;;
24147;SDS011;12309;51.450;-2.624;2023-06-24T13:51:24;5.97;;;2.00;;
24147;SDS011;12309;51.450;-2.624;2023-06-24T13:53:51;4.13;;;2.00;;
24147;SDS011;12309;51.450;-2.624;2023-06-24T13:56:19;5.75;;;2.63;;
24147;SDS011;12309;51.450;-2.624;2023-06-24T13:58:46;4.22;;;2.83;;
24147;SDS011;12309;51.450;-2.624;2023-06-24T14:01:12;3.08;;;2.03;;
24147;SDS011;12309;51.450;-2.624;2023-06-24T14:03:38;7.38;;;1.88;;
24147;SDS011;12309;51.450;-2.624;2023-06-24T14:06:03;6.57;;;2.20;;
24147;SDS011;12309;51.450;-2.624;2023-06-24T14:08:29;4.13;;;1.58;;
24147;SDS011;12309;51.450;-2.624;2023-06-24T14:10:57;5.13;;;2.03;;
24147;SDS011;12309;51.450;-2.624;2023-06-24T14:13:23;3.35;;;1.60;;
24147;SDS011;12309;51.450;-2.624;2023-06-24T14:15:49;3.53;;;1.80;;
24147;SDS011;12309;51.450;-2.624;2023-06-24T14:18:14;3.28;;;1.77;;
24147;SDS011;12309;51.450;-2.624;2023-06-24T14:20:41;3.72;;;1.98;;
24147;SDS011;12309;51.450;-2.624;2023-06-24T14:23:06;6.60;;;1.80;;
24147;SDS011;12309;51.450;-2.624;2023-06-24T14:25:32;3.08;;;1.80;;
24147;SDS011;12309;51.450;-2.624;2023-06-24T14:27:58;4.28;;;2.05;;
24147;SDS011;12309;51.450;-2.624;2023-06-24T14:30:24;3.63;;;2.08;;
24147;SDS011;12309;51.450;-2.624;2023-06-24T14:32:49;4.88;;;1.95;;
24147;SDS011;12309;51.450;-2.624;2023-06-24T14:35:15;4.35;;;2.20;;
24147;SDS011;12309;51.450;-2.624;2023-06-24T14:37:40;2.63;;;2.05;;
24147;SDS011;12309;51.450;-2.624;2023-06-24T14:40:07;2.67;;;1.73;;
24147;SDS011;12309;51.450;-2.624;2023-06-24T14:42:33;2.60;;;1.85;;
24147;SDS011;12309;51.450;-2.624;2023-06-24T14:45:00;4.72;;;2.03;;
24147;SDS011;12309;51.450;-2.624;2023-06-24T14:47:26;3.83;;;1.90;;
24147;SDS011;12309;51.450;-2.624;2023-06-24T14:49:51;6.65;;;1.70;;
24147;SDS011;12309;51.450;-2.624;2023-06-24T14:52:17;3.97;;;1.77;;
24147;SDS011;12309;51.450;-2.624;2023-06-24T14:54:42;1.75;;;1.60;;
24147;SDS011;12309;51.450;-2.624;2023-06-24T14:57:08;3.90;;;1.73;;
24147;SDS011;12309;51.450;-2.624;2023-06-24T14:59:34;3.33;;;1.73;;
24147;SDS011;12309;51.450;-2.624;2023-06-24T15:01:59;2.92;;;1.80;;
24147;SDS011;12309;51.450;-2.624;2023-06-24T15:04:25;2.72;;;1.90;;
24147;SDS011;12309;51.450;-2.624;2023-06-24T15:06:50;2.20;;;1.65;;